Time;durP1;ratioP1;P1;durP2;ratioP2;P2;SDS_P1;SDS_P2;PMS_P1;PMS_P2;Temp;Humidity;BMP_temperature;BMP_pressure;BME280_temperature;BME280_humidity;BME280_pressure;Samples;Min_cycle;Max_cycle;Signal;HPM_P1;HPM_P2
2023/11/08 00:02:18;;;;;;;1.10;0.90;;;21.60;96.30;;;;;;5070569;28;20508;-63
2023/11/08 00:04:45;;;;;;;1.30;0.93;;;21.60;96.30;;;;;;5073029;28;20471;-63
2023/11/08 00:07:11;;;;;;;1.67;0.90;;;21.50;96.20;;;;;;5071230;28;20456;-63
2023/11/08 00:09:38;;;;;;;1.47;0.90;;;21.50;96.20;;;;;;5071815;28;20938;-65
2023/11/08 00:12:05;;;;;;;1.57;1.00;;;21.50;96.20;;;;;;5073771;28;20468;-65
2023/11/08 00:14:32;;;;;;;1.23;0.90;;;21.50;96.20;;;;;;5071586;28;20797;-64
2023/11/08 00:17:01;;;;;;;1.93;1.23;;;21.50;96.20;;;;;;5073905;28;20762;-65
2023/11/08 00:19:27;;;;;;;1.23;0.90;;;21.50;96.30;;;;;;5066857;28;20463;-63
2023/11/08 00:21:55;;;;;;;1.30;0.97;;;21.50;96.30;;;;;;5069734;28;20456;-60
2023/11/08 00:24:22;;;;;;;1.63;1.03;;;21.40;96.20;;;;;;5072021;28;20823;-63
2023/11/08 00:26:49;;;;;;;1.93;1.10;;;21.40;96.20;;;;;;5069290;28;20554;-63
2023/11/08 00:29:16;;;;;;;1.40;0.90;;;21.40;96.20;;;;;;5066303;28;20455;-65
2023/11/08 00:31:42;;;;;;;1.30;0.97;;;21.40;96.30;;;;;;5069250;28;20824;-65
2023/11/08 00:34:13;;;;;;;1.57;1.10;;;21.40;96.30;;;;;;5068125;28;21138;-62
2023/11/08 00:36:39;;;;;;;2.80;1.30;;;21.40;96.30;;;;;;5069186;28;21068;-67
2023/11/08 00:39:07;;;;;;;1.93;1.10;;;21.40;96.30;;;;;;5064063;28;20956;-62
2023/11/08 00:41:34;;;;;;;1.47;1.30;;;21.40;96.30;;;;;;5066657;28;20456;-66
2023/11/08 00:44:01;;;;;;;1.73;0.80;;;21.40;96.30;;;;;;5068877;28;20462;-66
2023/11/08 00:46:28;;;;;;;1.80;1.23;;;21.40;96.30;;;;;;5063755;28;20472;-64
2023/11/08 00:48:54;;;;;;;1.67;1.00;;;21.40;96.30;;;;;;5069190;28;20468;-64
2023/11/08 00:51:23;;;;;;;3.10;1.20;;;21.40;96.40;;;;;;5068458;28;20456;-65
2023/11/08 00:53:50;;;;;;;1.50;0.90;;;21.40;96.40;;;;;;5068688;28;20463;-65
2023/11/08 00:56:17;;;;;;;1.40;1.03;;;21.40;96.40;;;;;;5067576;28;20563;-63
2023/11/08 00:58:44;;;;;;;1.60;0.90;;;21.30;96.40;;;;;;5064774;28;21072;-61
2023/11/08 01:01:10;;;;;;;3.93;1.10;;;21.40;96.40;;;;;;5068476;28;20457;-64
2023/11/08 01:03:37;;;;;;;1.20;0.90;;;21.30;96.40;;;;;;5064157;28;20468;-66
2023/11/08 01:06:04;;;;;;;1.30;1.20;;;21.30;96.40;;;;;;5055366;28;20202;-65
2023/11/08 01:08:32;;;;;;;1.60;1.00;;;21.30;96.40;;;;;;5063683;28;20448;-64
2023/11/08 01:10:59;;;;;;;1.53;1.20;;;21.20;96.40;;;;;;5066280;28;20464;-63
2023/11/08 01:13:26;;;;;;;1.73;1.47;;;21.20;96.40;;;;;;5063305;28;20885;-62
2023/11/08 01:15:53;;;;;;;1.87;1.07;;;21.20;96.40;;;;;;5067829;28;20483;-63
2023/11/08 01:18:20;;;;;;;1.52;1.13;;;21.20;96.40;;;;;;5067406;28;20955;-64
2023/11/08 01:20:47;;;;;;;1.37;0.90;;;21.20;96.40;;;;;;5064301;28;20203;-61
2023/11/08 01:23:14;;;;;;;1.20;0.90;;;21.30;96.40;;;;;;5063331;28;20488;-61
2023/11/08 01:25:43;;;;;;;1.90;1.10;;;21.20;96.40;;;;;;5067760;28;20894;-65
2023/11/08 01:28:11;;;;;;;1.33;0.90;;;21.20;96.40;;;;;;5060951;28;20657;-64
2023/11/08 01:30:38;;;;;;;2.23;1.20;;;21.20;96.40;;;;;;5064034;28;20839;-66
2023/11/08 01:33:05;;;;;;;1.50;1.00;;;21.20;96.40;;;;;;5063884;28;20457;-64
2023/11/08 01:35:32;;;;;;;3.10;1.00;;;21.20;96.40;;;;;;5063051;28;20535;-64
2023/11/08 01:37:58;;;;;;;1.20;0.80;;;21.20;96.40;;;;;;5065404;28;20490;-64
2023/11/08 01:40:25;;;;;;;1.27;1.03;;;21.10;96.40;;;;;;5063329;28;21231;-64
2023/11/08 01:42:53;;;;;;;1.70;1.10;;;21.10;96.40;;;;;;5061935;28;20459;-66
2023/11/08 01:45:20;;;;;;;1.30;0.90;;;21.10;96.40;;;;;;5064229;28;20455;-65
2023/11/08 01:47:48;;;;;;;1.60;1.10;;;21.10;96.40;;;;;;5062361;28;20598;-66
2023/11/08 01:50:16;;;;;;;1.40;1.00;;;21.10;96.50;;;;;;5063675;28;20512;-63
2023/11/08 01:52:43;;;;;;;1.63;1.05;;;21.10;96.60;;;;;;5065635;28;20483;-64
2023/11/08 01:55:10;;;;;;;1.15;0.93;;;21.10;96.60;;;;;;5064870;28;20209;-63
2023/11/08 01:57:37;;;;;;;1.30;1.10;;;21.10;96.60;;;;;;5068919;28;20551;-62
2023/11/08 02:02:46;;;;;;;2.27;1.40;;;21.10;96.60;;;;;;5024064;28;20886;-61
2023/11/08 02:05:12;;;;;;;1.20;0.83;;;21.10;96.60;;;;;;5025881;28;20458;-63
2023/11/08 02:07:39;;;;;;;1.75;1.10;;;21.00;96.50;;;;;;5028133;28;20462;-62
2023/11/08 02:10:08;;;;;;;1.25;0.70;;;21.00;96.50;;;;;;5026573;28;20195;-64
2023/11/08 02:12:37;;;;;;;1.17;0.80;;;21.00;96.50;;;;;;5022891;28;20545;-61
2023/11/08 02:15:06;;;;;;;1.30;0.85;;;21.10;96.60;;;;;;5024841;28;20196;-61
2023/11/08 02:17:33;;;;;;;1.92;1.05;;;21.00;96.60;;;;;;5022625;28;21201;-62
2023/11/08 02:20:03;;;;;;;1.50;0.95;;;21.00;96.60;;;;;;5023382;28;20527;-65
2023/11/08 02:22:30;;;;;;;1.97;1.17;;;21.00;96.60;;;;;;5031534;28;20190;-63
2023/11/08 02:24:59;;;;;;;1.70;1.20;;;21.00;96.60;;;;;;5031745;28;20850;-61
2023/11/08 02:27:26;;;;;;;2.87;0.90;;;21.00;96.60;;;;;;5033689;28;20488;-61
2023/11/08 02:29:52;;;;;;;1.30;0.73;;;21.00;96.60;;;;;;5030891;28;20454;-61
2023/11/08 02:32:19;;;;;;;1.70;1.03;;;21.00;96.60;;;;;;5032913;28;21056;-63
2023/11/08 02:34:46;;;;;;;1.30;0.82;;;21.00;96.60;;;;;;5030957;28;20493;-63
2023/11/08 02:37:13;;;;;;;1.53;1.13;;;21.00;96.60;;;;;;5018798;28;20232;-66
2023/11/08 02:39:40;;;;;;;1.43;1.07;;;20.90;96.60;;;;;;5019670;28;20504;-59
2023/11/08 02:42:09;;;;;;;1.60;1.10;;;20.90;96.60;;;;;;5021633;28;20461;-63
2023/11/08 02:44:35;;;;;;;1.40;0.90;;;20.90;96.60;;;;;;5020655;28;20865;-61
2023/11/08 02:47:02;;;;;;;1.50;1.10;;;20.90;96.60;;;;;;5020353;28;20469;-62
2023/11/08 02:49:30;;;;;;;1.33;1.00;;;21.00;96.60;;;;;;5021409;28;21150;-66
2023/11/08 02:51:58;;;;;;;1.40;1.00;;;20.90;96.50;;;;;;5023518;28;20268;-61
2023/11/08 02:54:25;;;;;;;1.20;1.00;;;20.90;96.60;;;;;;5020888;28;20441;-62
2023/11/08 02:56:52;;;;;;;1.20;0.90;;;20.90;96.60;;;;;;5019464;28;20472;-64
2023/11/08 02:59:20;;;;;;;1.23;0.98;;;20.90;96.60;;;;;;5019047;28;20210;-63
2023/11/08 03:01:48;;;;;;;1.37;0.80;;;20.90;96.60;;;;;;5019465;28;20207;-64
2023/11/08 03:04:15;;;;;;;1.75;1.00;;;20.90;96.60;;;;;;5019174;28;20455;-60
2023/11/08 03:06:44;;;;;;;1.10;0.90;;;20.90;96.60;;;;;;5023159;28;20642;-61
2023/11/08 03:09:11;;;;;;;1.60;1.00;;;20.80;96.60;;;;;;5019821;28;20465;-64
2023/11/08 03:11:39;;;;;;;1.10;0.97;;;20.80;96.60;;;;;;5021792;28;20473;-59
2023/11/08 03:14:06;;;;;;;2.00;1.00;;;20.80;96.60;;;;;;5022461;28;20457;-65
2023/11/08 03:16:35;;;;;;;1.80;1.10;;;20.80;96.60;;;;;;5026332;28;20221;-67
2023/11/08 03:19:01;;;;;;;1.70;1.20;;;20.80;96.50;;;;;;5027780;28;20200;-64
2023/11/08 03:21:28;;;;;;;1.73;1.10;;;20.80;96.60;;;;;;5028607;28;20207;-64
2023/11/08 03:23:55;;;;;;;1.50;0.80;;;20.80;96.60;;;;;;5028509;28;20462;-61
2023/11/08 03:26:22;;;;;;;1.50;0.90;;;20.80;96.60;;;;;;5026559;28;20204;-60
2023/11/08 03:28:48;;;;;;;2.70;0.80;;;20.80;96.70;;;;;;5029119;28;20718;-65
2023/11/08 03:31:16;;;;;;;2.17;0.90;;;20.80;96.70;;;;;;5031211;28;20222;-64
2023/11/08 03:33:44;;;;;;;1.40;0.80;;;20.80;96.70;;;;;;5029466;28;20266;-65
2023/11/08 03:36:11;;;;;;;1.17;0.80;;;20.80;96.70;;;;;;5028784;28;20460;-64
2023/11/08 03:38:38;;;;;;;1.67;1.10;;;20.80;96.70;;;;;;5029686;28;20494;-63
2023/11/08 03:41:04;;;;;;;1.73;1.10;;;20.80;96.70;;;;;;5028036;28;20468;-64
2023/11/08 03:43:31;;;;;;;1.30;0.97;;;20.80;96.70;;;;;;5025805;28;20454;-62
2023/11/08 03:45:58;;;;;;;1.50;0.80;;;20.80;96.70;;;;;;5028485;28;20470;-62
2023/11/08 03:48:24;;;;;;;2.20;1.13;;;20.80;96.70;;;;;;5028715;28;20490;-65
2023/11/08 03:50:52;;;;;;;1.20;0.90;;;20.70;96.60;;;;;;5026513;28;20198;-64
2023/11/08 03:53:19;;;;;;;1.30;1.02;;;20.70;96.60;;;;;;5026979;28;20529;-62
2023/11/08 03:55:46;;;;;;;1.25;0.90;;;20.70;96.60;;;;;;5031379;28;20196;-65
2023/11/08 03:58:13;;;;;;;1.30;1.00;;;20.70;96.70;;;;;;5024848;28;20215;-64
2023/11/08 04:00:39;;;;;;;1.38;1.20;;;20.70;96.60;;;;;;5027239;28;20466;-63
2023/11/08 04:03:06;;;;;;;1.55;1.08;;;20.70;96.60;;;;;;5024816;28;22225;-63
2023/11/08 04:05:33;;;;;;;1.55;0.90;;;20.70;96.60;;;;;;5029852;28;20848;-63
2023/11/08 04:08:02;;;;;;;1.38;0.90;;;20.70;96.70;;;;;;5029726;28;20758;-65
2023/11/08 04:10:29;;;;;;;1.55;0.90;;;20.70;96.70;;;;;;5028602;28;20635;-61
2023/11/08 04:12:56;;;;;;;1.57;0.83;;;20.70;96.70;;;;;;5026126;28;20674;-65
2023/11/08 04:15:23;;;;;;;1.30;0.90;;;20.70;97.00;;;;;;5026140;28;20947;-65
2023/11/08 04:17:49;;;;;;;1.42;1.10;;;20.70;96.70;;;;;;5028529;28;20710;-65
2023/11/08 04:20:16;;;;;;;1.52;1.05;;;20.70;96.70;;;;;;5024476;28;20443;-62
2023/11/08 04:22:43;;;;;;;1.45;0.98;;;20.70;96.60;;;;;;5028872;28;20196;-65
2023/11/08 04:25:11;;;;;;;1.20;1.00;;;20.70;96.70;;;;;;5026953;28;20438;-65
2023/11/08 04:27:38;;;;;;;1.38;0.88;;;20.70;96.70;;;;;;5026301;28;20207;-65
2023/11/08 04:30:07;;;;;;;1.67;0.98;;;20.70;96.70;;;;;;5025910;28;20675;-64
2023/11/08 04:32:33;;;;;;;1.25;0.90;;;20.70;96.70;;;;;;5020969;28;20192;-63
2023/11/08 04:34:59;;;;;;;1.10;0.80;;;20.60;96.60;;;;;;5024086;28;20207;-61
2023/11/08 04:37:26;;;;;;;1.30;0.90;;;20.60;96.60;;;;;;5022002;28;20235;-65
2023/11/08 04:39:53;;;;;;;1.20;1.00;;;20.70;96.70;;;;;;5025273;28;20206;-65
2023/11/08 04:42:21;;;;;;;1.33;0.80;;;20.60;96.60;;;;;;5022973;28;20240;-66
2023/11/08 04:44:48;;;;;;;1.63;0.90;;;20.60;96.60;;;;;;5024779;28;20206;-65
2023/11/08 04:47:18;;;;;;;1.10;0.80;;;20.60;96.60;;;;;;5024242;28;20203;-64
2023/11/08 04:49:47;;;;;;;1.25;0.90;;;20.60;96.60;;;;;;5022371;28;20198;-63
2023/11/08 04:52:13;;;;;;;1.10;0.80;;;20.50;96.60;;;;;;5021294;28;20198;-64
2023/11/08 04:54:40;;;;;;;1.10;0.90;;;20.60;96.60;;;;;;5024483;28;20274;-66
2023/11/08 04:57:07;;;;;;;1.45;1.05;;;20.60;96.60;;;;;;5024389;28;20226;-63
2023/11/08 04:59:36;;;;;;;1.20;0.90;;;20.60;96.60;;;;;;5025156;28;20195;-61
2023/11/08 05:02:04;;;;;;;1.08;0.85;;;20.60;96.60;;;;;;5026288;28;20256;-62
2023/11/08 05:04:30;;;;;;;1.30;0.80;;;20.50;96.60;;;;;;5024590;28;20234;-64
2023/11/08 05:06:57;;;;;;;1.27;0.90;;;20.60;96.60;;;;;;5027070;28;20196;-66
2023/11/08 05:09:24;;;;;;;1.38;1.08;;;20.60;96.60;;;;;;5030494;28;20720;-65
2023/11/08 05:11:51;;;;;;;1.30;0.80;;;20.50;96.60;;;;;;5026837;28;20202;-65
2023/11/08 05:14:17;;;;;;;1.15;0.82;;;20.60;96.60;;;;;;5021498;28;20199;-65
2023/11/08 05:16:46;;;;;;;1.42;0.90;;;20.50;96.60;;;;;;5022132;28;20207;-66
2023/11/08 05:19:13;;;;;;;1.50;0.90;;;20.50;96.60;;;;;;5017752;28;20203;-62
2023/11/08 05:21:40;;;;;;;1.50;1.13;;;20.50;96.60;;;;;;5020785;28;20228;-65
2023/11/08 05:24:07;;;;;;;1.33;0.82;;;20.60;96.70;;;;;;5022556;28;20551;-64
2023/11/08 05:26:34;;;;;;;1.35;0.90;;;20.50;96.60;;;;;;5025550;28;20207;-65
2023/11/08 05:29:01;;;;;;;1.65;0.90;;;20.50;96.60;;;;;;5021708;28;20199;-64
2023/11/08 05:31:33;;;;;;;1.30;0.95;;;20.50;96.60;;;;;;5022336;28;20199;-61
2023/11/08 05:34:02;;;;;;;1.10;0.95;;;20.50;96.60;;;;;;5021936;28;20203;-65
2023/11/08 05:36:28;;;;;;;1.50;1.33;;;20.50;96.60;;;;;;5021492;28;20199;-60
2023/11/08 05:38:55;;;;;;;0.90;0.70;;;20.50;96.60;;;;;;5024635;28;20225;-60
2023/11/08 05:41:22;;;;;;;1.20;0.90;;;20.50;96.60;;;;;;5025889;28;20195;-63
2023/11/08 05:43:50;;;;;;;1.30;1.00;;;20.50;96.60;;;;;;5025340;28;20291;-65
2023/11/08 05:46:17;;;;;;;1.15;0.90;;;20.50;96.60;;;;;;5025449;28;20542;-64
2023/11/08 05:48:44;;;;;;;1.08;0.80;;;20.50;96.60;;;;;;5024536;28;20203;-64
2023/11/08 05:51:12;;;;;;;1.42;0.90;;;20.50;96.60;;;;;;5021909;28;20557;-66
2023/11/08 05:53:38;;;;;;;1.67;0.85;;;20.50;96.60;;;;;;5024766;28;20206;-61
2023/11/08 05:56:07;;;;;;;1.15;0.85;;;20.50;96.60;;;;;;5025602;28;20195;-60
2023/11/08 05:58:35;;;;;;;1.60;1.00;;;20.50;96.60;;;;;;5023541;28;20707;-61
2023/11/08 06:01:02;;;;;;;1.65;1.20;;;20.50;96.60;;;;;;5027566;28;20207;-61
2023/11/08 06:03:29;;;;;;;1.20;1.00;;;20.50;96.60;;;;;;5027845;28;20560;-65
2023/11/08 06:05:56;;;;;;;1.40;1.10;;;20.50;96.60;;;;;;5026140;28;20242;-64
2023/11/08 06:08:24;;;;;;;1.27;0.93;;;20.50;96.60;;;;;;5026130;28;20195;-65
2023/11/08 06:10:51;;;;;;;1.25;0.93;;;20.50;96.60;;;;;;5029439;28;20199;-65
2023/11/08 06:13:18;;;;;;;1.50;0.90;;;20.40;96.60;;;;;;5027323;28;20199;-64
2023/11/08 06:15:45;;;;;;;1.45;0.80;;;20.40;96.60;;;;;;5028337;28;20210;-65
2023/11/08 06:18:11;;;;;;;1.13;0.80;;;20.40;96.50;;;;;;5026950;28;20226;-61
2023/11/08 06:20:38;;;;;;;1.30;0.90;;;20.50;96.60;;;;;;5025896;28;21099;-65
2023/11/08 06:23:05;;;;;;;1.30;0.90;;;20.40;96.50;;;;;;5027957;28;20194;-64
2023/11/08 06:25:33;;;;;;;1.38;0.82;;;20.40;96.50;;;;;;5024695;28;20416;-62
2023/11/08 06:28:02;;;;;;;1.30;0.80;;;20.40;96.50;;;;;;5026633;28;20242;-64
2023/11/08 06:30:29;;;;;;;1.05;0.80;;;20.40;96.60;;;;;;5027214;28;20198;-62
2023/11/08 06:32:58;;;;;;;1.75;0.80;;;20.40;96.50;;;;;;5027207;28;20206;-60
2023/11/08 06:35:24;;;;;;;1.50;1.00;;;20.40;96.60;;;;;;5026461;28;20199;-63
2023/11/08 06:37:51;;;;;;;1.00;0.80;;;20.40;96.90;;;;;;5025699;28;20710;-63
2023/11/08 06:40:18;;;;;;;1.00;0.80;;;20.40;96.60;;;;;;5023716;28;20188;-62
2023/11/08 06:42:46;;;;;;;1.90;0.90;;;20.40;96.60;;;;;;5026888;28;20187;-64
2023/11/08 06:45:13;;;;;;;1.48;0.93;;;20.40;96.60;;;;;;5027414;28;20202;-65
2023/11/08 06:47:40;;;;;;;0.90;0.70;;;20.40;96.60;;;;;;5030840;28;20291;-65
2023/11/08 06:50:10;;;;;;;1.00;0.80;;;20.40;96.60;;;;;;5025443;28;20750;-65
2023/11/08 06:52:37;;;;;;;1.20;1.00;;;20.40;96.60;;;;;;5028018;28;20200;-65
2023/11/08 06:55:04;;;;;;;1.23;0.98;;;20.40;96.70;;;;;;5030513;28;20513;-64
2023/11/08 06:57:31;;;;;;;2.28;0.77;;;20.40;96.70;;;;;;5027476;28;20203;-65
2023/11/08 06:59:59;;;;;;;1.40;0.90;;;20.40;96.70;;;;;;5029013;28;20206;-63
2023/11/08 07:02:26;;;;;;;1.30;0.70;;;20.50;96.70;;;;;;5028261;28;20332;-63
2023/11/08 07:04:53;;;;;;;1.60;1.10;;;20.40;96.70;;;;;;5031494;28;20295;-63
2023/11/08 07:07:20;;;;;;;1.30;0.90;;;20.40;96.70;;;;;;5029816;28;20199;-64
2023/11/08 07:09:49;;;;;;;1.55;0.95;;;20.40;96.70;;;;;;5030783;28;21737;-67
2023/11/08 07:12:15;;;;;;;1.00;0.80;;;20.40;96.80;;;;;;5028700;28;20314;-65
2023/11/08 07:14:42;;;;;;;1.00;0.80;;;20.40;96.80;;;;;;5029898;28;20203;-64
2023/11/08 07:17:10;;;;;;;1.20;0.90;;;20.40;96.80;;;;;;5030884;28;20594;-65
2023/11/08 07:19:37;;;;;;;1.38;1.02;;;20.40;96.70;;;;;;5031560;28;20230;-62
2023/11/08 07:22:04;;;;;;;1.02;0.80;;;20.30;96.70;;;;;;5029651;28;20199;-67
2023/11/08 07:24:31;;;;;;;1.15;1.00;;;20.40;96.80;;;;;;5032286;28;20648;-67
2023/11/08 07:26:58;;;;;;;1.30;1.13;;;20.40;96.80;;;;;;5024458;28;20191;-67
2023/11/08 07:29:24;;;;;;;1.80;1.00;;;20.30;96.80;;;;;;5031759;28;20199;-65
2023/11/08 07:31:52;;;;;;;1.00;0.80;;;20.40;97.00;;;;;;5027551;28;20639;-64
2023/11/08 07:34:22;;;;;;;1.30;0.90;;;20.40;96.90;;;;;;5026541;28;20281;-64
2023/11/08 07:36:48;;;;;;;1.00;0.90;;;20.40;96.90;;;;;;5030203;28;20207;-65
2023/11/08 07:39:15;;;;;;;1.20;0.70;;;20.40;96.90;;;;;;5027916;28;20697;-66
2023/11/08 07:41:42;;;;;;;1.27;1.02;;;20.40;97.00;;;;;;5030189;28;20792;-67
2023/11/08 07:44:09;;;;;;;1.30;0.70;;;20.40;97.00;;;;;;5025877;28;20211;-68
2023/11/08 07:46:36;;;;;;;1.20;1.00;;;20.40;97.00;;;;;;5026148;28;20362;-66
2023/11/08 07:49:03;;;;;;;1.73;1.03;;;20.50;97.10;;;;;;5028668;28;20531;-63
2023/11/08 07:51:30;;;;;;;1.02;0.80;;;20.50;97.10;;;;;;5029353;28;20954;-68
2023/11/08 07:53:57;;;;;;;1.52;0.80;;;20.50;97.10;;;;;;5030272;28;20203;-65
2023/11/08 07:56:24;;;;;;;1.10;0.80;;;20.50;97.10;;;;;;5031008;28;20712;-65
2023/11/08 07:58:51;;;;;;;1.10;0.85;;;20.60;97.10;;;;;;5031068;28;20667;-66
2023/11/08 08:01:18;;;;;;;1.10;0.98;;;20.60;97.10;;;;;;5018549;28;20292;-64
2023/11/08 08:03:47;;;;;;;1.45;0.90;;;20.60;97.10;;;;;;5020229;28;20228;-66
2023/11/08 08:06:14;;;;;;;1.38;0.80;;;20.60;97.00;;;;;;5022499;28;20194;-64
2023/11/08 08:08:43;;;;;;;1.10;0.82;;;20.60;96.90;;;;;;5023608;28;20195;-58
2023/11/08 08:11:11;;;;;;;1.42;0.98;;;20.70;97.20;;;;;;5025681;28;20201;-62
2023/11/08 08:13:37;;;;;;;5.43;1.20;;;20.70;97.10;;;;;;5023329;28;20207;-59
2023/11/08 08:16:05;;;;;;;4.43;1.33;;;20.70;95.50;;;;;;5027073;28;20564;-60
2023/11/08 08:18:32;;;;;;;3.08;1.10;;;20.70;94.60;;;;;;5024653;28;20948;-62
2023/11/08 08:20:59;;;;;;;2.50;1.17;;;20.60;94.30;;;;;;5021545;28;20273;-63
2023/11/08 08:23:26;;;;;;;1.38;1.00;;;20.60;94.90;;;;;;5029539;28;20195;-62
2023/11/08 08:25:54;;;;;;;1.73;1.00;;;20.70;95.40;;;;;;5025478;28;20234;-62
2023/11/08 08:28:21;;;;;;;3.90;1.20;;;20.70;96.30;;;;;;5027059;28;20950;-62
2023/11/08 08:30:48;;;;;;;5.32;1.33;;;20.80;96.10;;;;;;5027364;28;20464;-68
2023/11/08 08:33:15;;;;;;;4.88;1.27;;;20.70;96.10;;;;;;5029101;28;20192;-66
2023/11/08 08:35:42;;;;;;;1.73;0.93;;;20.80;96.00;;;;;;5022620;28;20320;-66
2023/11/08 08:38:08;;;;;;;8.85;1.02;;;20.80;96.00;;;;;;5024366;28;20220;-64
2023/11/08 08:40:35;;;;;;;3.87;1.13;;;20.80;96.00;;;;;;5022956;28;20204;-66
2023/11/08 08:43:05;;;;;;;3.67;1.05;;;20.80;96.00;;;;;;5016641;28;20910;-56
2023/11/08 08:45:31;;;;;;;6.80;1.20;;;20.80;95.40;;;;;;5022161;28;20574;-62
2023/11/08 08:47:59;;;;;;;2.50;1.33;;;20.70;92.50;;;;;;5020516;28;20481;-64
2023/11/08 08:50:26;;;;;;;1.93;1.20;;;20.70;92.40;;;;;;5022998;28;20481;-64
2023/11/08 08:52:53;;;;;;;2.75;1.50;;;20.70;91.70;;;;;;5020840;28;20454;-65
2023/11/08 08:55:20;;;;;;;6.43;1.97;;;20.70;90.90;;;;;;5020424;28;20757;-64
2023/11/08 08:57:48;;;;;;;5.17;1.57;;;20.70;90.10;;;;;;5021971;28;20473;-63
2023/11/08 09:00:18;;;;;;;6.07;1.63;;;20.70;89.80;;;;;;5018420;28;20990;-63
2023/11/08 09:02:45;;;;;;;2.53;1.10;;;20.70;89.10;;;;;;5021853;28;20466;-60
2023/11/08 09:05:12;;;;;;;2.80;1.30;;;20.70;88.70;;;;;;5021931;28;20460;-61
2023/11/08 09:07:39;;;;;;;4.00;1.47;;;20.70;87.50;;;;;;5017956;28;20466;-59
2023/11/08 09:10:08;;;;;;;2.23;1.20;;;20.70;87.00;;;;;;5020514;28;20465;-61
2023/11/08 09:12:35;;;;;;;5.43;2.40;;;20.70;85.40;;;;;;5020857;28;20829;-59
2023/11/08 09:15:02;;;;;;;3.50;1.50;;;20.80;86.00;;;;;;5023512;28;20461;-59
2023/11/08 09:17:30;;;;;;;1.93;1.17;;;20.70;85.90;;;;;;5021303;28;20480;-61
2023/11/08 09:19:57;;;;;;;4.70;1.37;;;20.80;85.70;;;;;;5022161;28;20492;-61
2023/11/08 09:22:24;;;;;;;7.30;1.60;;;20.90;90.00;;;;;;5018251;28;20837;-61
2023/11/08 09:24:51;;;;;;;3.70;1.83;;;21.00;90.20;;;;;;5027484;28;20492;-61
2023/11/08 09:27:18;;;;;;;2.80;1.20;;;21.00;90.50;;;;;;5023702;28;21056;-62
2023/11/08 09:29:45;;;;;;;2.20;1.10;;;21.00;90.50;;;;;;5019817;28;20829;-62
2023/11/08 09:32:12;;;;;;;1.97;1.10;;;21.10;90.60;;;;;;5025352;28;20484;-61
2023/11/08 09:34:40;;;;;;;2.60;1.13;;;21.10;90.60;;;;;;5025894;28;20485;-62
2023/11/08 09:37:08;;;;;;;4.00;1.40;;;21.10;90.60;;;;;;5023556;28;20977;-62
2023/11/08 09:39:36;;;;;;;2.20;1.20;;;21.10;90.80;;;;;;5029810;28;20481;-62
2023/11/08 09:42:04;;;;;;;1.60;1.27;;;21.10;90.80;;;;;;5026955;28;20458;-62
2023/11/08 09:44:32;;;;;;;2.00;1.07;;;21.20;90.90;;;;;;5020746;28;21020;-62
2023/11/08 09:47:00;;;;;;;2.80;1.27;;;21.20;91.00;;;;;;5026338;28;21092;-61
2023/11/08 09:49:26;;;;;;;2.23;1.47;;;21.20;91.00;;;;;;5025108;28;21025;-61
2023/11/08 09:51:54;;;;;;;2.90;1.90;;;21.30;91.20;;;;;;5028479;28;20461;-61
2023/11/08 09:54:21;;;;;;;1.80;1.00;;;21.20;91.20;;;;;;5031509;28;20847;-61
2023/11/08 09:56:48;;;;;;;2.07;1.20;;;21.30;91.30;;;;;;5028491;28;20464;-61
2023/11/08 09:59:16;;;;;;;2.47;1.20;;;21.30;91.40;;;;;;5027708;28;20473;-61
2023/11/08 10:01:45;;;;;;;2.80;1.37;;;21.30;91.40;;;;;;5024091;28;20477;-61
2023/11/08 10:04:13;;;;;;;1.50;1.33;;;21.30;91.50;;;;;;5029202;28;21009;-60
2023/11/08 10:06:41;;;;;;;3.20;1.10;;;21.30;91.60;;;;;;5025506;28;20461;-61
2023/11/08 10:09:11;;;;;;;3.13;1.47;;;21.30;91.60;;;;;;5023820;28;20593;-60
2023/11/08 10:11:39;;;;;;;1.77;1.37;;;21.30;91.60;;;;;;5029771;28;21037;-61
2023/11/08 10:14:07;;;;;;;2.33;1.30;;;21.30;91.70;;;;;;5028121;28;20458;-62
2023/11/08 10:16:45;;;;;;;2.07;0.80;;;21.30;91.70;;;;;;5027253;28;20488;-61
2023/11/08 10:19:11;;;;;;;1.90;1.00;;;21.30;91.70;;;;;;5025171;28;21078;-60
2023/11/08 10:21:38;;;;;;;3.27;1.00;;;21.30;91.80;;;;;;5031051;28;20802;-61
2023/11/08 10:24:15;;;;;;;1.13;1.00;;;21.30;91.90;;;;;;5029206;28;20461;-62
2023/11/08 10:26:42;;;;;;;3.10;1.10;;;21.30;91.90;;;;;;5022897;28;20457;-61
2023/11/08 10:29:11;;;;;;;2.33;0.90;;;21.30;91.90;;;;;;5022145;28;20966;-62
2023/11/08 10:31:39;;;;;;;2.37;1.40;;;21.30;92.00;;;;;;5027078;28;20543;-58
2023/11/08 10:34:07;;;;;;;1.70;1.17;;;21.30;92.10;;;;;;5029256;28;21021;-62
2023/11/08 10:36:34;;;;;;;13.40;1.40;;;21.30;91.80;;;;;;5029389;28;20958;-65
2023/11/08 10:39:04;;;;;;;21.73;2.10;;;21.30;91.60;;;;;;5027544;28;20567;-63
2023/11/08 10:41:32;;;;;;;2.07;1.33;;;21.30;91.70;;;;;;5026443;28;20453;-64
2023/11/08 10:44:10;;;;;;;5.70;1.80;;;21.30;91.80;;;;;;5025694;28;20458;-62
2023/11/08 10:46:39;;;;;;;2.93;1.23;;;21.40;92.00;;;;;;5027898;28;21799;-62
2023/11/08 10:49:07;;;;;;;6.87;2.00;;;21.40;92.00;;;;;;5035438;28;20464;-65
2023/11/08 10:51:37;;;;;;;2.20;1.20;;;21.40;92.20;;;;;;5026399;28;20517;-66
2023/11/08 10:54:04;;;;;;;2.07;1.03;;;21.40;92.30;;;;;;5032511;28;20460;-64
2023/11/08 10:56:33;;;;;;;3.10;1.57;;;21.40;92.40;;;;;;5031334;28;20466;-63
2023/11/08 10:59:02;;;;;;;3.33;1.10;;;21.40;92.50;;;;;;5031661;28;20486;-64
2023/11/08 11:01:31;;;;;;;2.90;1.20;;;21.50;92.70;;;;;;5022620;28;20767;-70
2023/11/08 11:04:04;;;;;;;3.57;1.20;;;21.40;92.50;;;;;;5035013;28;20506;-68
2023/11/08 11:06:36;;;;;;;6.00;1.40;;;21.40;92.80;;;;;;5024221;28;20457;-64
2023/11/08 11:09:08;;;;;;;4.80;1.17;;;21.40;92.80;;;;;;5036834;28;20798;-65
2023/11/08 11:11:38;;;;;;;2.43;1.30;;;21.40;92.90;;;;;;5034609;28;20536;-64
2023/11/08 11:14:15;;;;;;;4.60;1.50;;;21.50;92.90;;;;;;5035752;28;20470;-66
2023/11/08 11:16:52;;;;;;;6.00;1.30;;;21.50;92.90;;;;;;5033766;28;20448;-69
2023/11/08 11:19:22;;;;;;;3.50;1.50;;;21.50;92.80;;;;;;5031145;28;20571;-67
2023/11/08 11:21:54;;;;;;;2.77;1.70;;;21.40;92.60;;;;;;5030614;28;20458;-70
2023/11/08 11:24:37;;;;;;;4.40;1.70;;;21.40;92.50;;;;;;5028577;28;20918;-63
2023/11/08 11:27:06;;;;;;;5.63;1.93;;;21.40;92.50;;;;;;5029202;28;20949;-67
2023/11/08 11:29:33;;;;;;;3.30;1.60;;;21.40;92.40;;;;;;5029168;28;20553;-67
2023/11/08 11:32:03;;;;;;;9.13;1.77;;;21.40;92.30;;;;;;5027056;28;20492;-61
2023/11/08 11:34:44;;;;;;;4.80;1.57;;;21.40;92.50;;;;;;5024191;28;20809;-69
2023/11/08 11:37:13;;;;;;;2.00;1.60;;;21.50;92.30;;;;;;5024962;28;20462;-66
2023/11/08 11:39:42;;;;;;;5.37;1.83;;;21.50;92.50;;;;;;5024784;28;20476;-69
2023/11/08 11:42:16;;;;;;;9.00;1.73;;;21.50;92.70;;;;;;5023030;28;20674;-63
2023/11/08 11:44:45;;;;;;;2.13;1.20;;;21.60;92.70;;;;;;5022993;28;20473;-62
2023/11/08 11:47:13;;;;;;;5.50;1.53;;;21.60;92.80;;;;;;5023381;28;20457;-64
2023/11/08 11:49:46;;;;;;;3.50;1.20;;;21.60;92.90;;;;;;5028859;28;20450;-63
2023/11/08 11:52:14;;;;;;;2.53;1.30;;;21.70;93.10;;;;;;5024446;28;20784;-65
2023/11/08 11:54:48;;;;;;;2.10;1.10;;;21.70;93.10;;;;;;5026124;28;20795;-64
2023/11/08 11:57:17;;;;;;;4.40;1.47;;;21.70;93.10;;;;;;5027871;28;20463;-64
2023/11/08 11:59:44;;;;;;;3.63;1.40;;;21.80;93.20;;;;;;5026281;28;20492;-61
2023/11/08 12:02:11;;;;;;;2.13;1.07;;;21.90;93.40;;;;;;5027278;28;20873;-62
2023/11/08 12:04:39;;;;;;;2.30;1.20;;;21.80;93.30;;;;;;5026411;28;20460;-62
2023/11/08 12:07:09;;;;;;;3.83;1.53;;;21.90;93.30;;;;;;5030130;28;20795;-67
2023/11/08 12:09:36;;;;;;;2.93;1.10;;;21.90;93.30;;;;;;5025484;28;20896;-57
2023/11/08 12:12:03;;;;;;;2.80;1.40;;;21.90;93.40;;;;;;5025071;28;20461;-66
2023/11/08 12:14:31;;;;;;;1.97;1.00;;;21.90;93.40;;;;;;5022493;28;20915;-66
2023/11/08 12:16:58;;;;;;;2.77;1.43;;;21.90;93.30;;;;;;5024007;28;20977;-60
2023/11/08 12:19:30;;;;;;;3.17;1.17;;;21.90;93.40;;;;;;5028605;28;20485;-65
2023/11/08 12:21:57;;;;;;;2.30;1.30;;;21.90;93.30;;;;;;5027475;28;20450;-60
2023/11/08 12:24:24;;;;;;;2.20;1.47;;;21.90;93.30;;;;;;5027148;28;20462;-60
2023/11/08 12:26:50;;;;;;;4.10;1.13;;;21.90;93.40;;;;;;5030043;28;20466;-62
2023/11/08 12:29:17;;;;;;;3.80;1.13;;;21.90;93.50;;;;;;5024448;28;20461;-61
2023/11/08 12:31:46;;;;;;;1.57;1.10;;;22.00;93.10;;;;;;5026582;28;20466;-64
2023/11/08 12:34:15;;;;;;;1.67;1.20;;;21.90;93.00;;;;;;5026164;28;20454;-60
2023/11/08 12:36:41;;;;;;;3.50;1.10;;;21.90;93.00;;;;;;5023482;28;20763;-61
2023/11/08 12:39:13;;;;;;;4.03;0.80;;;21.90;92.90;;;;;;5030102;28;20481;-61
2023/11/08 12:41:44;;;;;;;1.97;0.90;;;22.00;93.00;;;;;;5027755;28;20462;-59
2023/11/08 12:44:13;;;;;;;2.07;1.10;;;21.90;92.90;;;;;;5021975;28;20816;-68
2023/11/08 12:46:49;;;;;;;3.73;1.50;;;22.00;92.90;;;;;;5021047;28;20470;-66
2023/11/08 12:49:17;;;;;;;2.37;1.47;;;22.00;92.90;;;;;;5025243;28;20571;-70
2023/11/08 12:51:44;;;;;;;3.10;1.20;;;22.00;92.90;;;;;;5020405;28;20458;-69
2023/11/08 12:54:11;;;;;;;2.13;1.17;;;22.00;92.90;;;;;;5028362;28;20540;-69